Time;durP1;ratioP1;P1;durP2;ratioP2;P2;SDS_P1;SDS_P2;PMS_P1;PMS_P2;Temp;Humidity;BMP_temperature;BMP_pressure;BME280_temperature;BME280_humidity;BME280_pressure;Samples;Min_cycle;Max_cycle;Signal;HPM_P1;HPM_P2
2023/02/24 00:01:44;;;;;;;64.40;32.95;;;9.90;99.90;;;;;;5025656;28;20072;-67
2023/02/24 00:04:12;;;;;;;56.42;32.00;;;9.90;99.90;;;;;;5029736;28;20021;-70
2023/02/24 00:06:40;;;;;;;59.92;32.65;;;9.90;99.90;;;;;;5031268;28;20124;-69
2023/02/24 00:09:12;;;;;;;62.30;31.90;;;9.90;99.90;;;;;;5025529;28;20034;-69
2023/02/24 00:11:47;;;;;;;49.88;30.15;;;9.90;99.90;;;;;;5028476;28;20034;-71
2023/02/24 00:14:15;;;;;;;62.70;32.58;;;9.90;99.90;;;;;;5033170;28;20032;-66
2023/02/24 00:16:42;;;;;;;57.50;32.15;;;9.90;99.90;;;;;;5028088;28;20488;-68
2023/02/24 00:19:10;;;;;;;56.75;32.63;;;9.90;99.90;;;;;;5031235;28;20041;-71
2023/02/24 00:21:36;;;;;;;65.28;32.25;;;9.90;99.90;;;;;;5026090;28;20172;-67
2023/02/24 00:24:02;;;;;;;57.30;31.10;;;10.00;99.90;;;;;;5030114;28;20544;-70
2023/02/24 00:26:28;;;;;;;60.08;31.52;;;10.10;99.90;;;;;;5032648;28;20387;-66
2023/02/24 00:28:58;;;;;;;62.47;34.15;;;10.20;99.90;;;;;;5030578;28;20025;-67
2023/02/24 00:31:25;;;;;;;63.97;31.30;;;10.10;99.90;;;;;;5032457;28;20394;-68
2023/02/24 00:33:51;;;;;;;53.72;32.83;;;10.20;99.90;;;;;;5032234;28;20029;-66
2023/02/24 00:36:22;;;;;;;57.58;31.50;;;10.10;99.90;;;;;;5032994;28;20033;-65
2023/02/24 00:38:49;;;;;;;55.17;31.35;;;10.10;99.90;;;;;;5031061;28;20094;-70
2023/02/24 00:41:17;;;;;;;56.80;32.35;;;10.10;99.90;;;;;;5030840;28;20661;-71
2023/02/24 00:43:47;;;;;;;59.75;32.17;;;10.10;99.90;;;;;;5031414;28;20026;-71
2023/02/24 00:46:19;;;;;;;59.38;32.67;;;10.20;99.90;;;;;;5031697;28;20033;-68
2023/02/24 00:48:46;;;;;;;56.55;32.00;;;10.00;99.90;;;;;;5032970;28;20022;-71
2023/02/24 00:51:15;;;;;;;;;;;9.90;99.90;;;;;;5032849;28;20112;-70
2023/02/24 00:53:41;;;;;;;58.60;30.05;;;9.90;99.90;;;;;;5036172;28;19920;-71
2023/02/24 00:56:11;;;;;;;63.53;31.45;;;9.90;99.90;;;;;;5030585;28;20038;-67
2023/02/24 00:58:41;;;;;;;62.88;32.42;;;9.90;99.90;;;;;;5032052;28;20480;-71
2023/02/24 01:01:15;;;;;;;52.78;29.33;;;9.80;99.90;;;;;;5029966;28;20041;-71
2023/02/24 01:03:42;;;;;;;57.72;29.98;;;9.80;99.90;;;;;;5032016;28;20281;-66
2023/02/24 01:06:08;;;;;;;59.50;31.38;;;9.70;99.90;;;;;;5031674;28;20025;-67
2023/02/24 01:08:39;;;;;;;62.67;33.10;;;9.70;99.90;;;;;;5032855;28;20116;-68
2023/02/24 01:13:49;;;;;;;63.63;31.85;;;9.60;99.90;;;;;;5034969;28;20032;-71
2023/02/24 01:16:17;;;;;;;64.83;31.80;;;9.60;99.90;;;;;;5033183;28;20025;-70
2023/02/24 01:18:46;;;;;;;54.63;30.33;;;9.50;99.90;;;;;;5033898;28;20036;-67
2023/02/24 01:21:13;;;;;;;55.95;30.40;;;9.60;99.90;;;;;;5030879;28;20025;-68
2023/02/24 01:23:40;;;;;;;63.28;30.60;;;9.60;99.90;;;;;;5032238;28;20099;-68
2023/02/24 01:26:06;;;;;;;55.75;29.85;;;9.60;99.90;;;;;;5032604;28;20618;-71
2023/02/24 01:28:31;;;;;;;55.57;30.87;;;9.60;99.90;;;;;;5029180;28;20037;-66
2023/02/24 01:31:02;;;;;;;57.43;30.10;;;9.50;99.90;;;;;;5014325;28;20441;-67
2023/02/24 01:33:28;;;;;;;55.95;28.73;;;9.50;99.90;;;;;;5027898;28;20020;-69
2023/02/24 01:35:54;;;;;;;53.38;29.05;;;9.60;99.90;;;;;;5030288;28;20033;-68
2023/02/24 01:38:22;;;;;;;57.35;30.73;;;9.70;99.90;;;;;;5032029;28;20051;-70
2023/02/24 01:40:58;;;;;;;58.50;30.60;;;9.60;99.90;;;;;;5031464;28;20933;-67
2023/02/24 01:43:24;;;;;;;47.83;29.60;;;9.50;99.90;;;;;;5033567;28;20025;-65
2023/02/24 01:45:52;;;;;;;56.15;30.63;;;9.60;99.90;;;;;;5033018;28;20042;-69
2023/02/24 01:48:18;;;;;;;60.15;31.88;;;9.60;99.90;;;;;;5030760;28;20096;-72
2023/02/24 01:50:44;;;;;;;63.33;32.55;;;9.70;99.90;;;;;;5028766;28;20033;-71
2023/02/24 01:53:11;;;;;;;51.60;29.92;;;9.60;99.90;;;;;;5030342;28;20029;-72
2023/02/24 01:55:48;;;;;;;;;;;9.50;99.90;;;;;;5031680;28;20644;-71
2023/02/24 01:58:33;;;;;;;51.38;29.23;;;9.50;99.90;;;;;;5022263;28;20416;-70
2023/02/24 02:00:59;;;;;;;59.15;31.95;;;9.50;99.90;;;;;;5033935;28;20485;-69
2023/02/24 02:03:31;;;;;;;50.55;29.02;;;9.60;99.90;;;;;;5028714;28;20227;-66
2023/02/24 02:06:07;;;;;;;51.63;28.42;;;9.60;99.90;;;;;;5029214;28;20714;-70
2023/02/24 02:08:35;;;;;;;54.03;29.53;;;9.70;99.90;;;;;;5033639;28;20029;-68
2023/02/24 02:11:07;;;;;;;57.92;30.48;;;9.70;99.90;;;;;;5030721;28;20280;-69
2023/02/24 02:13:37;;;;;;;51.38;28.88;;;9.50;99.90;;;;;;5033512;28;20108;-70
2023/02/24 02:16:28;;;;;;;57.58;28.10;;;9.50;99.90;;;;;;5034115;28;20079;-68
2023/02/24 02:19:09;;;;;;;54.33;28.30;;;9.40;99.90;;;;;;5027495;28;20049;-69
2023/02/24 02:21:42;;;;;;;54.63;28.75;;;9.40;99.90;;;;;;5032208;28;20140;-68
2023/02/24 02:24:14;;;;;;;50.90;29.02;;;9.50;99.90;;;;;;5031070;28;20374;-66
2023/02/24 02:26:56;;;;;;;52.70;28.15;;;9.60;99.90;;;;;;5028582;28;20545;-66
2023/02/24 02:29:43;;;;;;;49.00;27.55;;;9.50;99.90;;;;;;5030147;28;20053;-68
2023/02/24 02:32:23;;;;;;;56.37;29.20;;;9.40;99.90;;;;;;5024136;28;20404;-69
2023/02/24 02:35:10;;;;;;;52.50;27.88;;;9.50;99.90;;;;;;5028419;28;20033;-64
2023/02/24 02:37:55;;;;;;;57.50;28.90;;;9.50;99.90;;;;;;5027596;28;20052;-69
2023/02/24 02:40:55;;;;;;;56.03;27.42;;;9.50;99.90;;;;;;5027790;28;20040;-68
2023/02/24 02:43:35;;;;;;;55.35;28.02;;;9.50;99.90;;;;;;5028648;28;20060;-69
2023/02/24 02:46:13;;;;;;;48.53;26.45;;;9.40;99.90;;;;;;5032459;28;20040;-64
2023/02/24 02:48:48;;;;;;;49.67;27.73;;;9.50;99.90;;;;;;5018443;28;20565;-69
2023/02/24 02:51:18;;;;;;;53.17;28.88;;;9.50;99.90;;;;;;5028656;28;20048;-69
2023/02/24 02:54:10;;;;;;;55.80;28.83;;;9.50;99.90;;;;;;5028639;28;20021;-72
2023/02/24 02:56:42;;;;;;;48.33;26.80;;;9.50;99.90;;;;;;5024680;28;20033;-70
2023/02/24 02:59:11;;;;;;;54.75;26.02;;;9.50;99.90;;;;;;5024773;28;20099;-69
2023/02/24 03:01:40;;;;;;;51.75;28.98;;;9.50;99.90;;;;;;5026009;28;20053;-70
2023/02/24 03:04:08;;;;;;;52.40;27.77;;;9.60;99.90;;;;;;5017290;28;20057;-67
2023/02/24 03:06:39;;;;;;;54.53;27.13;;;9.50;99.90;;;;;;5027354;28;20021;-64
2023/02/24 03:09:14;;;;;;;51.40;27.70;;;9.40;99.90;;;;;;5031665;28;20037;-68
2023/02/24 03:11:42;;;;;;;49.53;27.83;;;9.50;99.90;;;;;;5024785;28;20036;-71
2023/02/24 03:14:11;;;;;;;47.83;26.05;;;9.60;99.90;;;;;;5027455;28;20128;-72
2023/02/24 03:16:40;;;;;;;47.47;26.70;;;9.60;99.90;;;;;;5028858;28;20045;-72
2023/02/24 03:19:08;;;;;;;49.72;27.58;;;9.60;99.90;;;;;;5021909;28;20041;-69
2023/02/24 03:21:44;;;;;;;58.88;28.40;;;9.50;99.90;;;;;;5026641;28;20108;-70
2023/02/24 03:24:11;;;;;;;59.08;28.40;;;9.50;99.90;;;;;;5022921;28;20877;-71
2023/02/24 03:26:52;;;;;;;52.55;27.27;;;9.50;99.90;;;;;;5027710;28;20072;-71
2023/02/24 03:29:29;;;;;;;52.58;27.70;;;9.50;99.90;;;;;;5029129;28;20017;-66
2023/02/24 03:31:58;;;;;;;58.35;29.48;;;9.50;99.90;;;;;;5026887;28;20425;-67
2023/02/24 03:34:40;;;;;;;57.53;28.65;;;9.40;99.90;;;;;;5028355;28;20497;-72
2023/02/24 03:37:06;;;;;;;54.75;28.60;;;9.40;99.90;;;;;;5025910;28;20033;-70
2023/02/24 03:39:31;;;;;;;49.30;28.88;;;9.40;99.90;;;;;;5026850;28;20031;-66
2023/02/24 03:42:03;;;;;;;51.93;26.97;;;9.40;99.90;;;;;;5025401;28;20063;-65
2023/02/24 03:44:28;;;;;;;51.17;27.60;;;9.30;99.90;;;;;;5027728;28;20126;-67
2023/02/24 03:46:54;;;;;;;56.83;28.70;;;9.30;99.90;;;;;;5025211;28;20528;-68
2023/02/24 03:49:20;;;;;;;55.75;28.75;;;9.30;99.90;;;;;;5029460;28;20033;-64
2023/02/24 03:52:09;;;;;;;54.80;29.60;;;9.30;99.90;;;;;;5027299;28;20739;-67
2023/02/24 03:55:08;;;;;;;51.63;28.10;;;9.30;99.90;;;;;;5026108;28;21010;-73
2023/02/24 03:58:03;;;;;;;52.53;28.75;;;9.30;99.90;;;;;;5028235;28;20056;-72
2023/02/24 04:00:59;;;;;;;82.18;29.75;;;9.40;99.90;;;;;;5030537;28;20029;-72
2023/02/24 04:03:51;;;;;;;50.08;29.65;;;9.40;99.90;;;;;;5031304;28;20117;-73
2023/02/24 04:06:36;;;;;;;57.40;28.00;;;9.30;99.90;;;;;;5029899;28;20037;-68
2023/02/24 04:09:13;;;;;;;54.53;28.48;;;9.40;99.90;;;;;;5032879;28;20034;-67
2023/02/24 04:12:03;;;;;;;47.05;27.73;;;9.50;99.90;;;;;;5036179;28;20505;-68
2023/02/24 04:14:55;;;;;;;54.17;27.85;;;9.60;99.90;;;;;;5029610;28;20301;-69
2023/02/24 04:17:34;;;;;;;56.58;28.95;;;9.60;99.90;;;;;;5061272;28;20045;-69
2023/02/24 04:20:12;;;;;;;56.13;26.50;;;9.50;99.90;;;;;;5031575;28;20124;-67
2023/02/24 04:22:39;;;;;;;50.33;28.23;;;9.50;99.90;;;;;;5028875;28;20032;-66
2023/02/24 04:25:12;;;;;;;55.47;29.50;;;9.40;99.90;;;;;;5029670;28;20025;-70
2023/02/24 04:27:40;;;;;;;55.28;28.88;;;9.20;99.90;;;;;;5033996;28;20095;-66
2023/02/24 04:30:09;;;;;;;58.33;33.17;;;9.10;99.90;;;;;;5029897;28;20083;-71
2023/02/24 04:32:36;;;;;;;50.83;29.85;;;9.00;99.90;;;;;;5030096;28;20520;-70
2023/02/24 04:35:06;;;;;;;63.58;31.08;;;9.00;99.90;;;;;;5032543;28;20037;-67
2023/02/24 04:37:36;;;;;;;57.25;29.30;;;8.90;99.90;;;;;;5030391;28;20044;-69
2023/02/24 04:40:09;;;;;;;61.28;31.88;;;8.90;99.90;;;;;;5035819;28;20041;-70
2023/02/24 04:42:35;;;;;;;60.35;29.27;;;8.80;99.90;;;;;;5030465;28;20037;-69
2023/02/24 04:45:00;;;;;;;56.05;28.48;;;8.70;99.90;;;;;;5031216;28;20029;-66
2023/02/24 04:47:27;;;;;;;57.73;29.50;;;8.60;99.90;;;;;;5032642;28;20025;-67
2023/02/24 04:49:53;;;;;;;57.53;29.30;;;8.60;99.90;;;;;;5036423;28;20049;-66
2023/02/24 04:52:20;;;;;;;53.53;29.80;;;8.60;99.90;;;;;;5015758;28;20120;-65
2023/02/24 04:54:46;;;;;;;59.47;31.05;;;8.50;99.90;;;;;;5034359;28;20211;-70
2023/02/24 04:57:13;;;;;;;54.05;29.45;;;8.50;99.90;;;;;;5029260;28;20029;-67
2023/02/24 04:59:39;;;;;;;72.43;32.80;;;8.50;99.90;;;;;;5031673;28;20294;-69
2023/02/24 05:02:05;;;;;;;53.60;26.85;;;8.30;99.90;;;;;;5028860;28;20438;-67
2023/02/24 05:04:37;;;;;;;59.00;31.07;;;8.20;99.90;;;;;;5027424;28;20079;-70
2023/02/24 05:07:03;;;;;;;55.38;29.67;;;8.30;99.90;;;;;;5030902;28;20276;-69
2023/02/24 05:09:29;;;;;;;57.90;31.10;;;8.40;99.90;;;;;;5030257;28;20033;-71
2023/02/24 05:11:56;;;;;;;50.33;29.40;;;8.40;99.90;;;;;;5030302;28;20033;-67
2023/02/24 05:14:23;;;;;;;58.38;30.15;;;8.30;99.90;;;;;;5027243;28;20032;-68
2023/02/24 05:16:49;;;;;;;55.72;30.83;;;8.30;99.90;;;;;;5033323;28;20409;-71
2023/02/24 05:22:03;;;;;;;79.80;36.17;;;8.30;99.90;;;;;;5029719;28;20045;-68
2023/02/24 05:24:30;;;;;;;66.72;34.67;;;8.30;99.90;;;;;;5027193;28;20022;-67
2023/02/24 05:27:00;;;;;;;64.47;34.03;;;8.30;99.90;;;;;;5032682;28;20377;-67
2023/02/24 05:29:28;;;;;;;60.35;32.25;;;8.30;99.90;;;;;;5028790;28;20397;-67
2023/02/24 05:31:58;;;;;;;62.03;30.65;;;8.30;99.90;;;;;;5034209;28;20049;-70
2023/02/24 05:34:24;;;;;;;53.97;29.98;;;8.20;99.90;;;;;;5027651;28;20045;-69
2023/02/24 05:36:49;;;;;;;53.80;30.10;;;8.20;99.90;;;;;;5029898;28;20056;-66
2023/02/24 05:39:18;;;;;;;60.53;30.92;;;8.30;99.90;;;;;;5028372;28;20045;-70
2023/02/24 05:41:47;;;;;;;61.28;32.08;;;8.30;99.90;;;;;;5026301;28;20037;-70
2023/02/24 05:44:15;;;;;;;60.22;29.95;;;8.30;99.90;;;;;;5031323;28;20087;-68
2023/02/24 05:46:44;;;;;;;59.45;29.58;;;8.30;99.90;;;;;;5026050;28;20033;-66
2023/02/24 05:49:22;;;;;;;53.58;29.67;;;8.40;99.90;;;;;;5027281;28;20144;-66
2023/02/24 05:51:55;;;;;;;56.10;28.25;;;8.50;99.90;;;;;;5027563;28;20030;-66
2023/02/24 05:54:28;;;;;;;54.15;28.45;;;8.50;99.90;;;;;;5026172;28;20025;-69
2023/02/24 05:56:56;;;;;;;55.05;29.10;;;8.50;99.90;;;;;;5030963;28;20025;-66
2023/02/24 05:59:23;;;;;;;52.08;27.55;;;8.40;99.90;;;;;;5029012;28;20041;-65
2023/02/24 06:01:52;;;;;;;58.25;28.15;;;8.30;99.90;;;;;;5031574;28;20097;-69
2023/02/24 06:04:38;;;;;;;52.85;29.52;;;8.30;99.90;;;;;;5031664;28;20119;-71
2023/02/24 06:07:05;;;;;;;53.95;29.20;;;8.20;99.90;;;;;;5027364;28;20034;-73
2023/02/24 06:09:31;;;;;;;58.95;30.38;;;8.20;99.90;;;;;;5026114;28;20029;-70
2023/02/24 06:11:57;;;;;;;60.33;29.50;;;8.10;99.90;;;;;;5025864;28;20510;-69
2023/02/24 06:14:23;;;;;;;61.50;31.58;;;8.10;99.90;;;;;;5027464;28;21010;-72
2023/02/24 06:16:49;;;;;;;56.75;30.08;;;8.10;99.90;;;;;;5027464;28;20039;-73
2023/02/24 06:19:15;;;;;;;58.08;29.55;;;8.20;99.90;;;;;;5027318;28;20103;-71
2023/02/24 06:21:41;;;;;;;56.97;29.43;;;8.20;99.90;;;;;;5033071;28;20029;-68
2023/02/24 06:24:16;;;;;;;60.25;29.40;;;8.30;99.90;;;;;;5028229;28;20415;-67
2023/02/24 06:26:43;;;;;;;55.22;29.92;;;8.30;99.90;;;;;;5034670;28;20043;-64
2023/02/24 06:29:13;;;;;;;61.03;28.55;;;8.20;99.90;;;;;;5026864;28;20079;-69
2023/02/24 06:31:40;;;;;;;56.35;27.23;;;8.20;99.90;;;;;;5018994;28;20045;-70
2023/02/24 06:34:06;;;;;;;55.58;25.88;;;8.20;99.90;;;;;;5029859;28;20040;-65
2023/02/24 06:36:32;;;;;;;53.67;28.90;;;8.10;99.90;;;;;;5026922;28;20079;-65
2023/02/24 06:38:57;;;;;;;47.47;28.20;;;8.10;99.90;;;;;;5028558;28;20041;-66
2023/02/24 06:41:23;;;;;;;56.37;28.47;;;8.20;99.90;;;;;;5029254;28;20036;-64
2023/02/24 06:43:49;;;;;;;51.47;28.90;;;8.10;99.90;;;;;;5028991;28;20501;-67
2023/02/24 06:46:15;;;;;;;52.85;28.15;;;8.20;99.90;;;;;;5018560;28;20052;-66
2023/02/24 06:48:41;;;;;;;55.00;27.08;;;8.20;99.90;;;;;;5021575;28;20041;-69
2023/02/24 06:51:12;;;;;;;55.47;27.13;;;8.20;99.90;;;;;;5025491;28;20395;-64
2023/02/24 06:53:44;;;;;;;48.03;26.25;;;8.20;99.90;;;;;;5026109;28;20740;-68
2023/02/24 06:56:19;;;;;;;59.90;25.65;;;8.20;99.90;;;;;;5028037;28;20021;-64
2023/02/24 06:58:47;;;;;;;52.90;29.05;;;8.20;99.90;;;;;;5027117;28;20513;-64
2023/02/24 07:01:15;;;;;;;54.80;28.10;;;8.20;99.90;;;;;;5033524;28;20033;-69
2023/02/24 07:04:01;;;;;;;54.50;29.00;;;8.40;99.90;;;;;;5029326;28;20038;-63
2023/02/24 07:06:33;;;;;;;60.25;29.65;;;8.30;99.90;;;;;;5024453;28;20033;-64
2023/02/24 07:09:05;;;;;;;51.00;28.80;;;8.40;99.90;;;;;;5029168;28;20583;-64
2023/02/24 07:11:33;;;;;;;56.35;28.17;;;8.40;99.90;;;;;;5026430;28;20057;-66
2023/02/24 07:13:59;;;;;;;47.88;27.85;;;8.40;99.90;;;;;;5059066;28;20029;-67
2023/02/24 07:16:27;;;;;;;60.75;26.88;;;8.50;99.90;;;;;;5025732;28;20099;-68
2023/02/24 07:19:08;;;;;;;59.80;27.10;;;8.40;99.90;;;;;;5025431;28;20132;-67
2023/02/24 07:21:42;;;;;;;56.92;27.95;;;8.40;99.90;;;;;;5025973;28;20029;-67
2023/02/24 07:24:12;;;;;;;52.20;26.55;;;8.40;99.90;;;;;;5030115;28;20424;-70
2023/02/24 07:26:40;;;;;;;53.22;27.33;;;8.50;99.90;;;;;;5027619;28;20040;-68
2023/02/24 07:29:08;;;;;;;63.90;32.83;;;8.60;99.90;;;;;;5025425;28;20470;-67
2023/02/24 07:31:35;;;;;;;48.53;28.75;;;8.60;99.90;;;;;;5033898;28;20025;-68
2023/02/24 07:34:02;;;;;;;52.25;26.40;;;8.60;99.90;;;;;;5026691;28;20493;-67
2023/02/24 07:36:28;;;;;;;59.97;28.52;;;8.70;99.90;;;;;;5023890;28;20037;-63
2023/02/24 07:38:57;;;;;;;55.15;27.00;;;9.00;99.90;;;;;;5028278;28;20056;-67
2023/02/24 07:41:25;;;;;;;45.50;26.27;;;9.20;99.90;;;;;;5032752;28;20490;-65
2023/02/24 07:43:52;;;;;;;55.97;25.08;;;9.60;99.90;;;;;;5028901;28;20069;-64
2023/02/24 07:46:24;;;;;;;56.15;24.38;;;9.90;99.90;;;;;;5025101;28;20025;-68
2023/02/24 07:48:51;;;;;;;56.17;26.33;;;9.60;99.90;;;;;;5026975;28;20041;-69
2023/02/24 07:51:24;;;;;;;54.75;26.02;;;9.40;99.90;;;;;;5030946;28;20409;-69
2023/02/24 07:53:58;;;;;;;51.80;24.77;;;9.50;99.90;;;;;;5025525;28;20049;-68
2023/02/24 07:56:26;;;;;;;53.20;25.35;;;9.50;99.90;;;;;;5027724;28;20025;-65
2023/02/24 07:58:58;;;;;;;50.03;26.50;;;9.40;99.90;;;;;;5030332;28;20045;-66
2023/02/24 08:01:37;;;;;;;45.22;25.08;;;9.30;99.90;;;;;;5027782;28;20124;-66
2023/02/24 08:04:06;;;;;;;59.15;26.95;;;9.40;99.90;;;;;;5029131;28;20404;-66
2023/02/24 08:06:37;;;;;;;52.72;25.05;;;9.40;99.90;;;;;;5026816;28;20037;-67
2023/02/24 08:09:17;;;;;;;50.47;25.23;;;9.50;99.90;;;;;;5030363;28;20131;-65
2023/02/24 08:11:55;;;;;;;49.20;25.92;;;9.60;99.90;;;;;;5024743;28;20037;-63
2023/02/24 08:14:33;;;;;;;44.15;25.67;;;9.50;99.90;;;;;;5028151;28;20025;-63
2023/02/24 08:17:04;;;;;;;51.55;26.38;;;9.60;99.90;;;;;;5025274;28;20033;-64
2023/02/24 08:19:40;;;;;;;48.95;26.73;;;9.70;99.90;;;;;;5026810;28;20064;-70
2023/02/24 08:22:19;;;;;;;63.17;25.60;;;9.70;99.90;;;;;;5024194;28;20032;-66
2023/02/24 08:24:58;;;;;;;55.50;27.92;;;9.80;99.90;;;;;;5028673;28;20043;-70
2023/02/24 08:27:29;;;;;;;57.08;26.88;;;9.80;99.90;;;;;;5026242;28;20087;-71
2023/02/24 08:30:00;;;;;;;51.33;27.38;;;9.80;99.90;;;;;;5029408;28;20525;-72
2023/02/24 08:32:42;;;;;;;57.03;27.92;;;9.80;99.90;;;;;;5030808;28;20037;-70
2023/02/24 08:35:13;;;;;;;44.17;26.45;;;9.60;99.90;;;;;;5019920;28;20049;-74
2023/02/24 08:37:50;;;;;;;40.20;24.95;;;9.30;99.90;;;;;;5019627;28;20060;-74
2023/02/24 08:43:14;;;;;;;42.25;26.40;;;9.40;99.90;;;;;;5029278;28;20273;-66
2023/02/24 08:45:55;;;;;;;41.10;26.17;;;9.40;99.90;;;;;;5026286;28;20087;-66
2023/02/24 08:48:31;;;;;;;40.13;27.40;;;9.50;99.90;;;;;;5031654;28;20028;-66
2023/02/24 08:51:01;;;;;;;44.15;28.65;;;9.60;99.90;;;;;;5025771;28;20553;-70
2023/02/24 08:53:30;;;;;;;45.88;28.50;;;9.60;99.90;;;;;;5024681;28;20029;-68
2023/02/24 08:55:58;;;;;;;43.95;28.25;;;9.80;99.90;;;;;;5036723;28;20033;-68
2023/02/24 08:58:28;;;;;;;47.40;29.63;;;9.80;99.90;;;;;;5031793;28;20041;-68
2023/02/24 09:00:55;;;;;;;47.50;29.10;;;9.80;99.90;;;;;;5030365;28;20028;-66
2023/02/24 09:03:32;;;;;;;47.13;29.50;;;10.00;99.90;;;;;;5028938;28;20057;-68
2023/02/24 09:06:05;;;;;;;46.03;29.58;;;10.00;99.90;;;;;;5031142;28;20017;-69
2023/02/24 09:08:33;;;;;;;43.03;29.38;;;10.50;99.90;;;;;;5030438;28;20143;-69
2023/02/24 09:11:07;;;;;;;47.80;27.30;;;11.90;99.90;;;;;;5029783;28;20033;-65
2023/02/24 09:13:41;;;;;;;44.08;24.88;;;14.80;99.90;;;;;;5028660;28;20034;-65
2023/02/24 09:16:15;;;;;;;37.17;23.52;;;16.50;99.90;;;;;;5031890;28;20549;-65
2023/02/24 09:18:41;;;;;;;42.60;22.95;;;16.70;98.70;;;;;;5029957;28;20095;-65
2023/02/24 09:24:05;;;;;;;38.83;23.67;;;18.60;97.40;;;;;;5025642;28;20082;-71
2023/02/24 09:26:41;;;;;;;45.03;24.55;;;18.90;95.00;;;;;;5028958;28;20037;-69
2023/02/24 09:29:32;;;;;;;31.35;21.30;;;20.20;94.30;;;;;;5028724;28;20477;-69
2023/02/24 09:32:03;;;;;;;36.22;22.08;;;20.30;92.30;;;;;;5029150;28;20056;-72
2023/02/24 09:34:32;;;;;;;33.85;21.45;;;20.50;91.40;;;;;;5024158;28;20041;-66
2023/02/24 09:37:04;;;;;;;35.22;22.45;;;21.60;90.70;;;;;;5027033;28;20254;-71
2023/02/24 09:44:51;;;;;;;36.35;21.50;;;22.60;86.90;;;;;;5031029;28;20405;-69
2023/02/24 09:47:38;;;;;;;37.15;20.92;;;22.60;84.10;;;;;;5032835;28;20021;-71
2023/02/24 09:50:18;;;;;;;40.58;21.20;;;23.40;82.60;;;;;;5019000;28;20029;-71
2023/02/24 09:52:46;;;;;;;34.78;20.67;;;23.80;80.70;;;;;;5029943;28;20501;-71
2023/02/24 09:55:29;;;;;;;33.63;20.75;;;23.70;80.50;;;;;;5026908;28;20562;-69
2023/02/24 10:01:19;;;;;;;39.00;21.25;;;22.00;88.00;;;;;;5030876;28;20502;-68
2023/02/24 10:04:04;;;;;;;34.85;21.33;;;22.00;87.60;;;;;;5030281;28;20034;-69
2023/02/24 10:06:45;;;;;;;36.35;21.77;;;21.90;88.10;;;;;;5034517;28;20026;-71
2023/02/24 10:09:33;;;;;;;46.55;22.77;;;20.70;90.70;;;;;;5028347;28;20503;-67
2023/02/24 10:12:15;;;;;;;34.05;22.35;;;19.90;92.90;;;;;;5028029;28;20040;-72
2023/02/24 10:17:46;;;;;;;40.70;25.33;;;19.00;94.40;;;;;;5029687;28;20535;-65
2023/02/24 10:23:14;;;;;;;37.45;24.77;;;18.10;96.70;;;;;;5027275;28;20464;-66
2023/02/24 10:26:02;;;;;;;41.05;24.88;;;20.70;93.70;;;;;;5027403;28;20036;-65
2023/02/24 10:28:44;;;;;;;39.20;23.60;;;21.00;91.90;;;;;;5025167;28;20045;-68
2023/02/24 10:31:29;;;;;;;39.53;23.30;;;21.20;91.80;;;;;;5023364;28;20033;-67
2023/02/24 10:34:05;;;;;;;37.45;23.92;;;22.10;90.60;;;;;;5033445;28;20056;-77
2023/02/24 10:36:34;;;;;;;36.75;22.42;;;22.10;90.70;;;;;;5027411;28;20045;-74
2023/02/24 10:39:19;;;;;;;35.50;23.52;;;20.90;91.10;;;;;;5025698;28;20037;-75
2023/02/24 10:41:56;;;;;;;41.65;22.80;;;21.50;90.90;;;;;;5025256;28;20029;-78
2023/02/24 10:44:34;;;;;;;44.28;23.15;;;20.20;90.00;;;;;;5026689;28;20675;-74
2023/02/24 10:47:12;;;;;;;37.13;23.00;;;18.60;94.40;;;;;;5028288;28;20024;-72
2023/02/24 10:49:55;;;;;;;39.78;21.88;;;18.10;96.10;;;;;;5028443;28;20072;-68
2023/02/24 10:53:10;;;;;;;36.67;22.42;;;18.00;96.80;;;;;;5026599;28;20037;-75
2023/02/24 10:58:27;;;;;;;36.78;21.35;;;19.00;94.40;;;;;;5030376;28;20025;-73
2023/02/24 11:01:19;;;;;;;38.88;23.20;;;18.30;94.40;;;;;;5031568;28;20070;-71
2023/02/24 11:04:21;;;;;;;41.03;19.52;;;18.00;95.30;;;;;;5035996;28;20029;-70
2023/02/24 11:06:56;;;;;;;37.03;21.05;;;18.20;93.90;;;;;;5029587;28;20389;-67
2023/02/24 11:17:36;;;;;;;41.40;19.67;;;17.20;95.30;;;;;;5021679;28;20079;-65
2023/02/24 11:20:21;;;;;;;34.95;17.60;;;16.80;95.80;;;;;;5027275;28;20094;-65
2023/02/24 11:22:51;;;;;;;31.75;17.80;;;16.70;96.40;;;;;;5032983;28;20025;-65
2023/02/24 11:25:39;;;;;;;37.90;16.38;;;16.60;97.00;;;;;;5032072;28;20419;-61
2023/02/24 11:28:25;;;;;;;42.60;18.17;;;16.30;97.20;;;;;;5027366;28;20029;-66
2023/02/24 11:31:15;;;;;;;31.50;19.02;;;16.30;96.90;;;;;;5029255;28;20566;-62
2023/02/24 11:34:07;;;;;;;42.70;20.13;;;16.30;97.00;;;;;;5036745;28;20040;-62
2023/02/24 11:36:40;;;;;;;37.35;18.98;;;16.20;97.20;;;;;;5030063;28;20041;-64
2023/02/24 11:39:15;;;;;;;37.08;20.73;;;16.10;98.50;;;;;;5026277;28;20568;-68
2023/02/24 11:41:46;;;;;;;34.88;17.77;;;16.30;97.80;;;;;;5030107;28;20041;-69
2023/02/24 11:44:24;;;;;;;39.35;18.13;;;16.20;98.30;;;;;;5033896;28;20029;-69
2023/02/24 11:47:06;;;;;;;37.35;18.85;;;16.40;97.60;;;;;;5035204;28;20033;-68
2023/02/24 11:50:16;;;;;;;37.05;18.95;;;16.50;96.90;;;;;;5030052;28;20104;-68
2023/02/24 11:52:45;;;;;;;37.70;18.90;;;16.40;97.40;;;;;;5025208;28;20161;-66
2023/02/24 11:55:38;;;;;;;37.42;18.40;;;16.40;96.50;;;;;;5033961;28;20048;-69
2023/02/24 11:58:17;;;;;;;37.47;14.95;;;16.40;96.70;;;;;;5010193;28;20052;-70
2023/02/24 12:00:54;;;;;;;21.92;7.18;;;16.40;95.90;;;;;;5038011;28;20034;-71
2023/02/24 12:03:31;;;;;;;23.95;6.90;;;16.40;91.90;;;;;;5027924;28;20404;-72
2023/02/24 12:06:14;;;;;;;21.23;6.00;;;16.30;91.50;;;;;;5030821;28;20348;-72
2023/02/24 12:08:44;;;;;;;27.52;6.40;;;16.40;92.20;;;;;;5029364;28;20033;-72
2023/02/24 12:11:37;;;;;;;29.92;6.63;;;16.70;90.40;;;;;;5029024;28;20025;-67
2023/02/24 12:14:12;;;;;;;26.98;7.63;;;17.10;91.40;;;;;;5023691;28;20132;-71
2023/02/24 12:16:44;;;;;;;29.08;6.68;;;17.20;91.50;;;;;;5030635;28;20743;-69
2023/02/24 12:19:30;;;;;;;23.15;5.97;;;17.20;92.00;;;;;;5028469;28;20034;-64
2023/02/24 12:22:04;;;;;;;30.00;5.38;;;17.10;91.20;;;;;;5029231;28;20382;-67
2023/02/24 12:24:30;;;;;;;24.63;5.70;;;17.20;90.30;;;;;;5029226;28;20390;-67
2023/02/24 12:27:17;;;;;;;25.77;5.35;;;17.10;90.30;;;;;;5038549;28;20029;-72
2023/02/24 12:30:05;;;;;;;27.63;5.85;;;17.10;90.70;;;;;;5039478;28;20048;-74
2023/02/24 12:32:51;;;;;;;22.17;5.72;;;17.10;90.40;;;;;;5036157;28;20021;-71
2023/02/24 12:35:52;;;;;;;23.58;5.72;;;17.20;90.80;;;;;;5033301;28;20033;-69
2023/02/24 12:38:59;;;;;;;18.83;6.40;;;17.10;90.00;;;;;;5028402;28;20079;-74
2023/02/24 12:41:36;;;;;;;26.42;5.85;;;16.90;90.30;;;;;;4974980;28;20038;-69
2023/02/24 12:44:30;;;;;;;25.90;5.70;;;17.00;91.20;;;;;;5028086;28;20528;-73
2023/02/24 12:47:09;;;;;;;22.27;5.65;;;17.10;89.90;;;;;;5032133;28;20021;-74
2023/02/24 12:49:57;;;;;;;19.33;5.90;;;17.40;89.30;;;;;;5028921;28;20152;-73
2023/02/24 12:53:03;;;;;;;22.20;5.85;;;17.20;88.30;;;;;;5033299;28;20400;-68
2023/02/24 12:55:46;;;;;;;23.70;5.78;;;17.00;90.90;;;;;;5023170;28;20416;-72
2023/02/24 12:58:15;;;;;;;30.52;6.18;;;16.90;90.50;;;;;;5032061;28;20033;-70
2023/02/24 13:00:47;;;;;;;21.38;5.00;;;16.90;90.70;;;;;;5033655;28;20504;-69
2023/02/24 13:03:33;;;;;;;22.67;6.63;;;16.90;89.50;;;;;;5033986;28;20033;-70
2023/02/24 13:06:09;;;;;;;19.85;5.28;;;17.00;90.40;;;;;;5033750;28;20029;-70
2023/02/24 13:08:50;;;;;;;26.73;6.75;;;17.00;89.50;;;;;;5032144;28;20039;-70
2023/02/24 13:11:37;;;;;;;19.98;5.05;;;17.00;89.70;;;;;;5026692;28;20033;-70
2023/02/24 13:14:15;;;;;;;16.48;5.25;;;16.90;89.20;;;;;;5034526;28;20541;-68
2023/02/24 13:16:41;;;;;;;28.58;6.85;;;16.80;89.40;;;;;;5067021;28;20087;-69
2023/02/24 13:19:28;;;;;;;33.87;7.20;;;16.80;90.70;;;;;;5034639;28;20041;-71
2023/02/24 13:22:10;;;;;;;20.55;5.25;;;16.70;87.90;;;;;;5035500;28;20025;-68
2023/02/24 13:24:36;;;;;;;25.30;5.55;;;16.60;87.40;;;;;;5032219;28;20037;-70
2023/02/24 13:27:05;;;;;;;;;;;16.60;89.30;;;;;;5032604;28;20065;-72
2023/02/24 13:29:48;;;;;;;27.20;4.63;;;16.40;89.20;;;;;;5030774;28;19909;-72
2023/02/24 13:33:03;;;;;;;21.00;6.15;;;16.30;89.30;;;;;;5033618;28;20029;-69
2023/02/24 13:35:32;;;;;;;24.92;6.00;;;16.40;90.30;;;;;;4969201;28;20101;-64
2023/02/24 13:38:08;;;;;;;23.35;4.97;;;16.20;90.90;;;;;;5023223;28;20478;-66
2023/02/24 13:40:34;;;;;;;28.60;5.47;;;16.10;91.30;;;;;;5028902;28;20470;-67
2023/02/24 13:43:03;;;;;;;25.53;6.60;;;16.10;91.70;;;;;;5024402;28;20036;-68
2023/02/24 13:45:40;;;;;;;31.90;5.75;;;16.00;92.40;;;;;;5036698;28;20021;-65
2023/02/24 13:48:08;;;;;;;;;;;16.00;92.10;;;;;;5033754;28;20491;-66